Time;durP1;ratioP1;P1;durP2;ratioP2;P2;SDS_P1;SDS_P2;PMS_P1;PMS_P2;Temp;Humidity;BMP_temperature;BMP_pressure;BME280_temperature;BME280_humidity;BME280_pressure;Samples;Min_cycle;Max_cycle;Signal;HPM_P1;HPM_P2
2022/05/27 00:01:13;;;;;;;4.80;2.45;;;;;;;;;;4964757;28;20035;-87
2022/05/27 00:03:39;;;;;;;6.50;2.17;;;;;;;;;;4960287;29;20027;-87
2022/05/27 00:06:05;;;;;;;5.28;2.45;;;;;;;;;;4958388;29;20090;-87
2022/05/27 00:08:31;;;;;;;5.70;2.28;;;;;;;;;;4960207;29;20102;-86
2022/05/27 00:10:59;;;;;;;6.80;2.55;;;;;;;;;;4959181;29;20027;-86
2022/05/27 00:13:26;;;;;;;6.47;2.55;;;;;;;;;;4958080;28;20476;-87
2022/05/27 00:15:52;;;;;;;4.38;2.47;;;;;;;;;;4956512;28;20058;-87
2022/05/27 00:18:18;;;;;;;5.55;2.50;;;;;;;;;;4956821;28;20027;-86
2022/05/27 00:20:44;;;;;;;5.05;2.35;;;;;;;;;;4958308;29;20034;-87
2022/05/27 00:23:10;;;;;;;8.35;2.85;;;;;;;;;;4959247;28;20027;-86
2022/05/27 00:25:39;;;;;;;4.55;2.60;;;;;;;;;;4958813;29;20034;-85
2022/05/27 00:28:05;;;;;;;8.23;2.90;;;;;;;;;;4956855;28;20048;-85
2022/05/27 00:30:31;;;;;;;2.33;2.13;;;;;;;;;;4959975;29;20051;-85
2022/05/27 00:32:57;;;;;;;5.80;2.55;;;;;;;;;;4959479;28;20050;-86
2022/05/27 00:35:23;;;;;;;7.63;2.60;;;;;;;;;;4959526;28;20519;-86
2022/05/27 00:37:50;;;;;;;9.23;2.95;;;;;;;;;;4960640;29;20401;-86
2022/05/27 00:40:16;;;;;;;4.85;2.72;;;;;;;;;;4960280;29;20109;-86
2022/05/27 00:42:42;;;;;;;5.47;2.47;;;;;;;;;;4957658;28;20130;-86
2022/05/27 00:45:20;;;;;;;6.72;2.70;;;;;;;;;;4957896;29;20058;-87
2022/05/27 00:47:49;;;;;;;5.63;2.95;;;;;;;;;;4956410;29;20031;-85
2022/05/27 00:50:17;;;;;;;5.57;2.78;;;;;;;;;;4956248;28;20023;-86
2022/05/27 00:52:44;;;;;;;6.50;3.00;;;;;;;;;;4957807;29;20023;-86
2022/05/27 00:55:15;;;;;;;4.68;3.15;;;;;;;;;;4956368;28;20042;-85
2022/05/27 00:57:45;;;;;;;5.18;2.80;;;;;;;;;;4957846;29;20031;-85
2022/05/27 01:00:13;;;;;;;6.65;2.97;;;;;;;;;;4957417;29;20032;-86
2022/05/27 01:02:39;;;;;;;9.05;3.17;;;;;;;;;;4956385;28;20061;-86
2022/05/27 01:05:07;;;;;;;4.03;2.92;;;;;;;;;;4956956;28;20491;-86
2022/05/27 01:07:33;;;;;;;6.68;3.88;;;;;;;;;;4957698;29;20473;-85
2022/05/27 01:10:00;;;;;;;6.40;3.70;;;;;;;;;;4957415;29;20362;-85
2022/05/27 01:12:37;;;;;;;7.43;3.92;;;;;;;;;;4956094;28;20030;-86
2022/05/27 01:15:09;;;;;;;5.45;3.08;;;;;;;;;;4956780;29;20031;-86
2022/05/27 01:17:49;;;;;;;7.72;3.60;;;;;;;;;;4956799;28;20469;-85
2022/05/27 01:20:34;;;;;;;7.78;3.22;;;;;;;;;;4939245;28;20047;-86
2022/05/27 01:23:18;;;;;;;6.32;3.17;;;;;;;;;;4936481;29;20051;-86
2022/05/27 01:26:03;;;;;;;6.47;3.70;;;;;;;;;;4938854;29;20505;-86
2022/05/27 01:28:35;;;;;;;9.13;3.67;;;;;;;;;;4939920;29;20052;-85
2022/05/27 01:31:20;;;;;;;9.18;3.45;;;;;;;;;;4959227;29;20031;-86
2022/05/27 01:34:04;;;;;;;5.75;3.42;;;;;;;;;;4958271;28;20425;-86
2022/05/27 01:36:49;;;;;;;5.57;3.58;;;;;;;;;;4972337;28;20039;-87
2022/05/27 01:39:34;;;;;;;8.80;4.30;;;;;;;;;;4979865;28;20489;-86
2022/05/27 01:42:06;;;;;;;5.38;3.72;;;;;;;;;;4981099;28;20042;-84
2022/05/27 01:44:37;;;;;;;10.70;4.55;;;;;;;;;;4968698;28;20054;-87
2022/05/27 01:47:05;;;;;;;9.82;4.10;;;;;;;;;;4963640;29;20057;-86
2022/05/27 01:49:37;;;;;;;6.10;3.42;;;;;;;;;;4963807;29;20038;-86
2022/05/27 01:52:06;;;;;;;9.98;3.80;;;;;;;;;;4963946;29;20034;-86
2022/05/27 01:54:44;;;;;;;7.95;4.00;;;;;;;;;;4963188;29;20023;-86
2022/05/27 01:57:13;;;;;;;8.23;4.00;;;;;;;;;;4958453;29;20031;-85
2022/05/27 01:59:51;;;;;;;11.95;4.28;;;;;;;;;;4958520;28;20434;-85
2022/05/27 02:02:19;;;;;;;8.35;4.32;;;;;;;;;;4959598;29;20027;-86
2022/05/27 02:04:55;;;;;;;7.22;4.10;;;;;;;;;;4958873;28;20381;-86
2022/05/27 02:07:29;;;;;;;12.05;4.35;;;;;;;;;;4956949;29;20086;-85
2022/05/27 02:09:59;;;;;;;12.23;5.05;;;;;;;;;;4955412;29;20397;-85
2022/05/27 02:12:49;;;;;;;10.52;5.20;;;;;;;;;;4956500;29;20026;-86
2022/05/27 02:15:17;;;;;;;9.80;5.60;;;;;;;;;;4950747;29;20063;-86
2022/05/27 02:17:58;;;;;;;10.18;5.22;;;;;;;;;;4956251;29;20019;-86
2022/05/27 02:20:28;;;;;;;9.20;4.90;;;;;;;;;;4936973;29;20024;-86
2022/05/27 02:22:58;;;;;;;8.48;5.38;;;;;;;;;;4934981;29;20027;-84
2022/05/27 02:25:27;;;;;;;12.70;4.72;;;;;;;;;;4935288;29;20092;-86
2022/05/27 02:28:04;;;;;;;7.30;4.78;;;;;;;;;;4936781;29;20028;-86
2022/05/27 02:30:31;;;;;;;7.30;4.75;;;;;;;;;;4935707;29;20027;-86
2022/05/27 02:35:45;;;;;;;10.55;5.50;;;;;;;;;;4936557;29;20166;-86
2022/05/27 02:38:12;;;;;;;10.30;5.80;;;;;;;;;;4954429;28;20133;-86
2022/05/27 02:40:48;;;;;;;11.23;5.28;;;;;;;;;;4955036;29;20042;-86
2022/05/27 02:43:27;;;;;;;9.65;5.93;;;;;;;;;;4915155;29;1162475;-86
2022/05/27 02:45:53;;;;;;;11.60;6.13;;;;;;;;;;4955733;29;20054;-86
2022/05/27 02:48:27;;;;;;;14.27;6.38;;;;;;;;;;4955921;29;20031;-86
2022/05/27 02:50:52;;;;;;;16.83;6.30;;;;;;;;;;4956579;29;20028;-86
2022/05/27 02:53:48;;;;;;;13.40;6.60;;;;;;;;;;4955490;29;20038;-87
2022/05/27 02:56:14;;;;;;;10.45;6.20;;;;;;;;;;4950032;28;20118;-84
2022/05/27 02:58:40;;;;;;;15.38;6.88;;;;;;;;;;4959548;29;20122;-86
2022/05/27 03:01:06;;;;;;;13.38;6.18;;;;;;;;;;4957732;28;20023;-86
2022/05/27 03:03:33;;;;;;;15.75;6.40;;;;;;;;;;4958102;29;20027;-86
2022/05/27 03:06:19;;;;;;;9.15;5.82;;;;;;;;;;4955074;28;20032;-85
2022/05/27 03:08:48;;;;;;;11.55;6.57;;;;;;;;;;4961357;29;20031;-85
2022/05/27 03:11:17;;;;;;;10.45;7.05;;;;;;;;;;4961081;29;20119;-86
2022/05/27 03:13:50;;;;;;;12.20;7.00;;;;;;;;;;4963208;29;20020;-86
2022/05/27 03:16:19;;;;;;;12.32;6.82;;;;;;;;;;4958337;28;20031;-86
2022/05/27 03:19:03;;;;;;;10.85;6.88;;;;;;;;;;4958841;28;20050;-86
2022/05/27 03:21:52;;;;;;;13.65;7.40;;;;;;;;;;4959777;29;20039;-87
2022/05/27 03:24:24;;;;;;;15.18;8.27;;;;;;;;;;4958335;29;20035;-86
2022/05/27 03:26:50;;;;;;;13.98;7.65;;;;;;;;;;4961609;29;20035;-86
2022/05/27 03:29:16;;;;;;;11.68;7.25;;;;;;;;;;4959427;28;20082;-86
2022/05/27 03:31:46;;;;;;;14.45;8.15;;;;;;;;;;4960661;29;20023;-86
2022/05/27 03:34:32;;;;;;;13.27;7.78;;;;;;;;;;4960519;29;20027;-86
2022/05/27 03:37:27;;;;;;;13.05;7.63;;;;;;;;;;4960352;29;20023;-86
2022/05/27 03:39:59;;;;;;;11.10;6.95;;;;;;;;;;4963121;28;20043;-86
2022/05/27 03:42:25;;;;;;;11.63;8.20;;;;;;;;;;4959316;28;20067;-87
2022/05/27 03:44:56;;;;;;;14.60;7.93;;;;;;;;;;4962151;29;20039;-87
2022/05/27 03:47:22;;;;;;;18.92;8.00;;;;;;;;;;4961320;29;20020;-86
2022/05/27 03:49:48;;;;;;;13.95;7.95;;;;;;;;;;4959563;28;20508;-86
2022/05/27 03:52:23;;;;;;;13.25;8.27;;;;;;;;;;4959039;28;20075;-87
2022/05/27 03:54:49;;;;;;;12.90;7.38;;;;;;;;;;4961184;28;20035;-85
2022/05/27 03:57:15;;;;;;;12.98;7.50;;;;;;;;;;4959004;28;20027;-85
2022/05/27 03:59:41;;;;;;;13.10;8.25;;;;;;;;;;4960146;29;20507;-86
2022/05/27 04:02:07;;;;;;;20.05;8.75;;;;;;;;;;4959727;29;20110;-86
2022/05/27 04:04:33;;;;;;;13.70;8.10;;;;;;;;;;4959835;29;20035;-86
2022/05/27 04:06:59;;;;;;;18.38;7.85;;;;;;;;;;4959184;29;20054;-87
2022/05/27 04:09:26;;;;;;;10.15;7.03;;;;;;;;;;4972183;28;20027;-87
2022/05/27 04:11:52;;;;;;;14.07;8.07;;;;;;;;;;4977280;28;20023;-87
2022/05/27 04:14:19;;;;;;;13.40;7.55;;;;;;;;;;4976282;28;20034;-86
2022/05/27 04:16:45;;;;;;;12.50;7.50;;;;;;;;;;4965129;28;20035;-85
2022/05/27 04:19:11;;;;;;;12.75;8.13;;;;;;;;;;4971884;29;20050;-85
2022/05/27 04:21:38;;;;;;;12.15;7.63;;;;;;;;;;4973043;29;20035;-86
2022/05/27 04:24:04;;;;;;;16.70;8.32;;;;;;;;;;4974358;28;20090;-87
2022/05/27 04:26:30;;;;;;;12.75;8.52;;;;;;;;;;4975651;29;20035;-87
2022/05/27 04:28:59;;;;;;;11.02;7.43;;;;;;;;;;4970958;28;20066;-85
2022/05/27 04:31:25;;;;;;;11.75;7.35;;;;;;;;;;4968777;28;20027;-86
2022/05/27 04:33:51;;;;;;;12.63;7.10;;;;;;;;;;4969351;28;20031;-86
2022/05/27 04:36:17;;;;;;;11.95;7.28;;;;;;;;;;4971919;28;20035;-86
2022/05/27 04:38:43;;;;;;;11.90;7.32;;;;;;;;;;4968889;29;20036;-86
2022/05/27 04:41:09;;;;;;;11.05;7.55;;;;;;;;;;4967458;28;20035;-87
2022/05/27 04:43:35;;;;;;;13.18;6.85;;;;;;;;;;4967646;29;20043;-87
2022/05/27 04:46:02;;;;;;;18.45;7.68;;;;;;;;;;4967534;28;20035;-87
2022/05/27 04:48:28;;;;;;;13.20;6.93;;;;;;;;;;4965016;29;20050;-86
2022/05/27 04:50:54;;;;;;;9.73;7.00;;;;;;;;;;4969937;28;20031;-86
2022/05/27 04:53:20;;;;;;;14.10;6.70;;;;;;;;;;4966245;28;20039;-88
2022/05/27 04:55:46;;;;;;;11.05;6.20;;;;;;;;;;4969484;28;20054;-85
2022/05/27 04:58:12;;;;;;;19.20;6.55;;;;;;;;;;4969296;29;20027;-86
2022/05/27 05:00:49;;;;;;;9.10;6.85;;;;;;;;;;4969766;28;20027;-86
2022/05/27 05:03:19;;;;;;;13.82;6.63;;;;;;;;;;4971738;29;20129;-86
2022/05/27 05:05:59;;;;;;;9.88;6.75;;;;;;;;;;4964421;28;20027;-85
2022/05/27 05:08:38;;;;;;;10.30;6.10;;;;;;;;;;4966335;29;20023;-85
2022/05/27 05:11:05;;;;;;;11.82;6.00;;;;;;;;;;4965376;29;20331;-87
2022/05/27 05:13:32;;;;;;;8.75;5.43;;;;;;;;;;4971049;28;20054;-85
2022/05/27 05:16:04;;;;;;;10.70;6.10;;;;;;;;;;4972447;29;20030;-86
2022/05/27 05:18:32;;;;;;;10.57;5.43;;;;;;;;;;4966207;29;20023;-87
2022/05/27 05:20:59;;;;;;;12.63;6.78;;;;;;;;;;4949963;29;20028;-85
2022/05/27 05:23:31;;;;;;;11.63;5.78;;;;;;;;;;4958288;29;20035;-85
2022/05/27 05:26:06;;;;;;;7.30;5.13;;;;;;;;;;4967395;29;20035;-82
2022/05/27 05:28:32;;;;;;;7.97;6.07;;;;;;;;;;4971058;29;20027;-85
2022/05/27 05:31:03;;;;;;;9.43;5.60;;;;;;;;;;4972459;28;20036;-87
2022/05/27 05:33:33;;;;;;;10.52;5.65;;;;;;;;;;4967760;29;20034;-84
2022/05/27 05:36:30;;;;;;;;;;;;;;;;;;;;;
2022/05/27 05:38:59;;;;;;;14.43;6.30;;;;;;;;;;4970084;29;20054;-85
2022/05/27 05:41:46;;;;;;;11.77;5.50;;;;;;;;;;4968981;28;20054;-85
2022/05/27 05:44:34;;;;;;;;;;;;;;;;;;;;;
2022/05/27 05:47:06;;;;;;;9.73;5.70;;;;;;;;;;4957197;29;20110;-84
2022/05/27 05:50:01;;;;;;;16.52;5.65;;;;;;;;;;4957503;29;20030;-83
2022/05/27 05:52:37;;;;;;;11.55;5.30;;;;;;;;;;4956627;29;20118;-85
2022/05/27 05:55:13;;;;;;;10.25;4.95;;;;;;;;;;4957166;28;20023;-85
2022/05/27 05:58:09;;;;;;;10.25;5.28;;;;;;;;;;4955332;29;20082;-86
2022/05/27 06:00:46;;;;;;;7.88;4.95;;;;;;;;;;4939478;28;20035;-86
2022/05/27 06:03:14;;;;;;;10.35;5.80;;;;;;;;;;4993540;23;20504;-83
2022/05/27 06:05:42;;;;;;;9.40;5.15;;;;;;;;;;4965843;28;20035;-84
2022/05/27 06:08:08;;;;;;;8.35;5.90;;;;;;;;;;4959687;28;20030;-84
2022/05/27 06:10:34;;;;;;;11.27;5.47;;;;;;;;;;4955130;29;20083;-85
2022/05/27 06:13:00;;;;;;;9.18;5.90;;;;;;;;;;4982412;28;20022;-84
2022/05/27 06:15:26;;;;;;;11.65;5.55;;;;;;;;;;4991919;28;20023;-85
2022/05/27 06:17:52;;;;;;;9.40;6.20;;;;;;;;;;4991921;28;20035;-85
2022/05/27 06:20:19;;;;;;;9.75;5.82;;;;;;;;;;4993724;28;20026;-84
2022/05/27 06:22:45;;;;;;;9.82;5.07;;;;;;;;;;4993435;28;20029;-84
2022/05/27 06:25:12;;;;;;;8.85;6.07;;;;;;;;;;4990538;28;20023;-84
2022/05/27 06:27:38;;;;;;;10.02;5.20;;;;;;;;;;4993138;28;20080;-84
2022/05/27 06:35:34;;;;;;;7.50;4.95;;;;;;;;;;4993342;28;20061;-85
2022/05/27 06:38:00;;;;;;;6.15;4.40;;;;;;;;;;4993566;28;20030;-84
2022/05/27 06:40:26;;;;;;;5.93;3.92;;;;;;;;;;4991553;28;20069;-84
2022/05/27 06:42:52;;;;;;;8.88;4.38;;;;;;;;;;4993433;28;20056;-85
2022/05/27 06:45:18;;;;;;;7.80;3.85;;;;;;;;;;4993090;28;20031;-83
2022/05/27 06:47:44;;;;;;;8.45;3.88;;;;;;;;;;4991821;28;20025;-84
2022/05/27 06:50:10;;;;;;;7.57;3.67;;;;;;;;;;4991107;28;20042;-84
2022/05/27 06:52:37;;;;;;;5.90;2.80;;;;;;;;;;4994520;28;20097;-84
2022/05/27 06:55:03;;;;;;;4.22;3.00;;;;;;;;;;4996327;28;20030;-84
2022/05/27 06:57:29;;;;;;;6.75;3.42;;;;;;;;;;5000956;28;20018;-85
2022/05/27 06:59:55;;;;;;;4.68;3.30;;;;;;;;;;5011698;28;20049;-85
2022/05/27 07:02:22;;;;;;;5.75;2.95;;;;;;;;;;5003940;28;20065;-83
2022/05/27 07:04:48;;;;;;;7.70;3.72;;;;;;;;;;5003971;28;20026;-85
2022/05/27 07:07:14;;;;;;;6.40;3.10;;;;;;;;;;5002653;28;20085;-84
2022/05/27 07:09:40;;;;;;;5.15;3.05;;;;;;;;;;5001465;28;20085;-85
2022/05/27 07:12:08;;;;;;;4.45;3.00;;;;;;;;;;4996974;28;20034;-85
2022/05/27 07:14:34;;;;;;;5.57;3.55;;;;;;;;;;4998103;28;20033;-86
2022/05/27 07:17:00;;;;;;;4.82;3.22;;;;;;;;;;5000483;28;20023;-85
2022/05/27 07:19:26;;;;;;;3.25;2.55;;;;;;;;;;5001619;28;20034;-86
2022/05/27 07:21:55;;;;;;;4.88;3.50;;;;;;;;;;5000469;28;20121;-85
2022/05/27 07:24:22;;;;;;;4.43;2.80;;;;;;;;;;4999214;28;20045;-85
2022/05/27 07:26:48;;;;;;;3.40;2.47;;;;;;;;;;5001055;28;20030;-84
2022/05/27 07:29:14;;;;;;;3.20;2.70;;;;;;;;;;5000792;28;20023;-85
2022/05/27 07:31:41;;;;;;;4.20;2.83;;;;;;;;;;4998160;28;20026;-85
2022/05/27 07:34:07;;;;;;;6.30;2.70;;;;;;;;;;4998220;28;20018;-85
2022/05/27 07:36:33;;;;;;;4.72;2.75;;;;;;;;;;4998060;28;20026;-86
2022/05/27 07:38:59;;;;;;;5.10;2.63;;;;;;;;;;4998458;28;20045;-85
2022/05/27 07:41:30;;;;;;;4.20;2.47;;;;;;;;;;4998724;28;20034;-85
2022/05/27 07:43:59;;;;;;;5.43;2.53;;;;;;;;;;4997355;28;20033;-83
2022/05/27 07:46:25;;;;;;;6.65;2.97;;;;;;;;;;4995788;28;20125;-85
2022/05/27 07:48:51;;;;;;;4.40;2.55;;;;;;;;;;4998474;28;20487;-84
2022/05/27 07:51:18;;;;;;;5.10;2.60;;;;;;;;;;4995131;28;20081;-86
2022/05/27 07:53:44;;;;;;;7.70;2.60;;;;;;;;;;4996379;28;20023;-86
2022/05/27 07:56:10;;;;;;;4.70;3.20;;;;;;;;;;4991937;28;20234;-84
2022/05/27 07:58:36;;;;;;;4.32;3.05;;;;;;;;;;4974937;28;20031;-86
2022/05/27 08:01:03;;;;;;;5.93;2.78;;;;;;;;;;4976536;28;20031;-84
2022/05/27 08:03:29;;;;;;;3.78;2.72;;;;;;;;;;4993617;28;20047;-86
2022/05/27 08:05:55;;;;;;;5.95;3.00;;;;;;;;;;4993807;28;20087;-85
2022/05/27 08:08:22;;;;;;;5.60;2.97;;;;;;;;;;4982334;28;20168;-84
2022/05/27 08:10:49;;;;;;;4.30;3.22;;;;;;;;;;4977722;28;20019;-84
2022/05/27 08:13:15;;;;;;;6.38;3.17;;;;;;;;;;4993933;28;20476;-85
2022/05/27 08:15:40;;;;;;;4.90;2.85;;;;;;;;;;4986329;28;20038;-83
2022/05/27 08:18:07;;;;;;;4.65;2.63;;;;;;;;;;4987429;28;20073;-86
2022/05/27 08:20:35;;;;;;;5.60;3.17;;;;;;;;;;4987738;28;20031;-84
2022/05/27 08:23:01;;;;;;;7.28;2.90;;;;;;;;;;4994421;28;20034;-84
2022/05/27 08:25:29;;;;;;;4.65;2.60;;;;;;;;;;4994011;28;20117;-87
2022/05/27 08:27:55;;;;;;;3.38;2.33;;;;;;;;;;4994908;28;20045;-86
2022/05/27 08:30:22;;;;;;;8.15;2.67;;;;;;;;;;4994608;28;20488;-86
2022/05/27 08:32:48;;;;;;;3.83;2.78;;;;;;;;;;4993596;28;20018;-84
2022/05/27 08:38:01;;;;;;;4.40;2.28;;;;;;;;;;4980076;28;20045;-84
2022/05/27 08:40:32;;;;;;;6.72;3.53;;;;;;;;;;4993912;28;20117;-83
2022/05/27 08:43:01;;;;;;;6.43;2.30;;;;;;;;;;4995167;28;20132;-84
2022/05/27 08:45:54;;;;;;;5.18;2.55;;;;;;;;;;4992060;28;20030;-85
2022/05/27 08:48:21;;;;;;;4.07;2.30;;;;;;;;;;4969511;28;20133;-84
2022/05/27 08:50:49;;;;;;;5.18;2.83;;;;;;;;;;4980841;28;20044;-84
2022/05/27 08:53:26;;;;;;;3.13;2.20;;;;;;;;;;4995367;28;20114;-84
2022/05/27 09:01:32;;;;;;;4.35;1.80;;;;;;;;;;4984840;28;20065;-85
2022/05/27 09:04:07;;;;;;;5.50;1.95;;;;;;;;;;4983261;28;20034;-84
2022/05/27 09:06:40;;;;;;;2.78;2.00;;;;;;;;;;4982560;28;20037;-86
2022/05/27 09:09:07;;;;;;;2.03;1.50;;;;;;;;;;4983223;28;20038;-86
2022/05/27 09:11:59;;;;;;;2.30;1.88;;;;;;;;;;4989760;28;20034;-86
2022/05/27 09:14:26;;;;;;;1.70;1.40;;;;;;;;;;4994636;28;20034;-86
2022/05/27 09:16:52;;;;;;;3.33;1.80;;;;;;;;;;4989430;28;20207;-85
2022/05/27 09:19:21;;;;;;;4.80;1.85;;;;;;;;;;4987149;28;20112;-85
2022/05/27 09:22:02;;;;;;;3.10;2.10;;;;;;;;;;4976911;28;20404;-85
2022/05/27 09:24:30;;;;;;;5.45;2.35;;;;;;;;;;4976088;28;20366;-87
2022/05/27 09:27:00;;;;;;;3.58;1.88;;;;;;;;;;4975154;28;20038;-84
2022/05/27 09:29:29;;;;;;;2.78;2.17;;;;;;;;;;4977094;28;20102;-86
2022/05/27 09:32:03;;;;;;;5.82;1.58;;;;;;;;;;4975196;28;20038;-85
2022/05/27 09:34:30;;;;;;;2.55;1.83;;;;;;;;;;4985034;28;20027;-85
2022/05/27 09:36:59;;;;;;;10.30;2.95;;;;;;;;;;4990623;28;20038;-85
2022/05/27 09:39:25;;;;;;;2.80;1.70;;;;;;;;;;4974129;28;20469;-85
2022/05/27 09:42:10;;;;;;;9.75;2.05;;;;;;;;;;4982117;28;20026;-86
2022/05/27 09:44:39;;;;;;;3.10;2.03;;;;;;;;;;4994616;28;20023;-86
2022/05/27 09:47:05;;;;;;;2.88;1.70;;;;;;;;;;4994406;28;20034;-84
2022/05/27 09:49:31;;;;;;;2.35;1.70;;;;;;;;;;4992198;28;20022;-85
2022/05/27 09:51:58;;;;;;;2.35;1.98;;;;;;;;;;4973321;28;20030;-85
2022/05/27 09:54:44;;;;;;;2.90;1.80;;;;;;;;;;4972576;28;20022;-86
2022/05/27 09:57:10;;;;;;;2.25;1.52;;;;;;;;;;4973270;28;20373;-85
2022/05/27 09:59:40;;;;;;;2.65;1.70;;;;;;;;;;4972455;28;20026;-85
2022/05/27 10:02:28;;;;;;;2.30;1.75;;;;;;;;;;4973515;28;20099;-86
2022/05/27 10:05:20;;;;;;;6.68;2.28;;;;;;;;;;4973105;28;20027;-85
2022/05/27 10:07:59;;;;;;;7.95;2.55;;;;;;;;;;4979897;28;20049;-86
2022/05/27 10:10:30;;;;;;;3.97;2.17;;;;;;;;;;4990681;28;20481;-86
2022/05/27 10:12:57;;;;;;;4.00;2.15;;;;;;;;;;4973269;28;20113;-86
2022/05/27 10:15:29;;;;;;;2.13;1.92;;;;;;;;;;4972008;28;20451;-85
2022/05/27 10:17:55;;;;;;;3.42;2.28;;;;;;;;;;4971812;28;20034;-86
2022/05/27 10:20:29;;;;;;;4.60;2.08;;;;;;;;;;4989694;28;20408;-85
2022/05/27 10:23:06;;;;;;;4.72;2.47;;;;;;;;;;4991333;28;20026;-85
2022/05/27 10:25:40;;;;;;;9.70;2.50;;;;;;;;;;4991227;28;20125;-85
2022/05/27 10:28:07;;;;;;;9.98;2.95;;;;;;;;;;4998480;28;20392;-86
2022/05/27 10:30:35;;;;;;;5.05;2.30;;;;;;;;;;5004150;28;20031;-86
2022/05/27 10:33:17;;;;;;;3.28;2.10;;;;;;;;;;5007040;28;20077;-86
2022/05/27 10:35:43;;;;;;;4.90;2.30;;;;;;;;;;5007672;28;20034;-86
2022/05/27 10:38:19;;;;;;;3.35;1.70;;;;;;;;;;5000238;28;20042;-86
2022/05/27 10:40:50;;;;;;;6.45;2.10;;;;;;;;;;4998774;28;20026;-87
2022/05/27 10:43:17;;;;;;;;;;;;;;;;;;4989176;28;20122;-86
2022/05/27 10:45:49;;;;;;;8.60;1.90;;;;;;;;;;5001845;28;19913;-86
2022/05/27 10:48:39;;;;;;;;;;;;;;;;;;;;;
2022/05/27 10:51:16;;;;;;;3.70;1.70;;;;;;;;;;5036667;28;20045;-86
2022/05/27 10:54:00;;;;;;;6.80;1.70;;;;;;;;;;5023562;28;20508;-86
2022/05/27 10:56:29;;;;;;;2.88;1.40;;;;;;;;;;5020372;28;20057;-86
2022/05/27 11:02:05;;;;;;;5.53;1.80;;;;;;;;;;5022272;28;20049;-86
2022/05/27 11:04:37;;;;;;;6.25;1.60;;;;;;;;;;5021025;28;20507;-86
2022/05/27 11:07:12;;;;;;;3.72;1.58;;;;;;;;;;5023999;28;20026;-86
2022/05/27 11:09:47;;;;;;;5.25;2.10;;;;;;;;;;5026202;28;20057;-86
2022/05/27 11:15:10;;;;;;;4.80;1.60;;;;;;;;;;5005314;28;20555;-86
2022/05/27 11:15:22;;;;;;;1.98;1.38;;;;;;;;;;5001044;28;20034;-86
2022/05/27 11:18:07;;;;;;;3.97;1.55;;;;;;;;;;4999733;28;20054;-86
2022/05/27 11:20:46;;;;;;;3.00;1.35;;;;;;;;;;5000400;28;20088;-84
2022/05/27 11:26:36;;;;;;;4.00;1.60;;;;;;;;;;4970742;28;20475;-85
2022/05/27 11:29:06;;;;;;;3.05;1.30;;;;;;;;;;4999754;28;20033;-85
2022/05/27 11:31:38;;;;;;;3.00;1.30;;;;;;;;;;4986185;28;20030;-86
2022/05/27 11:34:17;;;;;;;6.63;1.15;;;;;;;;;;4998070;28;20042;-86
2022/05/27 11:36:49;;;;;;;1.88;1.30;;;;;;;;;;5000684;28;20053;-87
2022/05/27 11:39:33;;;;;;;2.47;1.60;;;;;;;;;;4998569;28;20468;-86
2022/05/27 11:42:02;;;;;;;6.07;1.67;;;;;;;;;;5000077;28;20022;-86
2022/05/27 11:44:34;;;;;;;3.20;1.45;;;;;;;;;;5000214;28;20053;-86
2022/05/27 11:47:06;;;;;;;5.55;3.38;;;;;;;;;;4999647;28;20037;-85
2022/05/27 11:49:40;;;;;;;6.63;2.30;;;;;;;;;;4999779;28;20611;-85
2022/05/27 11:52:11;;;;;;;5.90;2.60;;;;;;;;;;4998565;28;20026;-85
2022/05/27 11:54:37;;;;;;;7.95;2.83;;;;;;;;;;4998649;28;20045;-85
2022/05/27 11:57:19;;;;;;;6.07;2.80;;;;;;;;;;4996546;28;20463;-85
2022/05/27 12:00:08;;;;;;;3.75;1.40;;;;;;;;;;4996395;28;20030;-85
2022/05/27 12:02:53;;;;;;;4.13;1.58;;;;;;;;;;5020493;23;20041;-88
2022/05/27 12:05:23;;;;;;;3.47;1.50;;;;;;;;;;4973592;28;20039;-87
2022/05/27 12:08:01;;;;;;;2.30;1.88;;;;;;;;;;4965032;28;20099;-86
2022/05/27 12:10:50;;;;;;;4.88;1.67;;;;;;;;;;4965020;28;20110;-87
2022/05/27 12:13:56;;;;;;;6.38;1.60;;;;;;;;;;4960717;28;20054;-88
2022/05/27 12:16:29;;;;;;;3.00;1.38;;;;;;;;;;4936514;29;20027;-85
2022/05/27 12:22:25;;;;;;;;;;;;;;;;;;;;;
2022/05/27 12:43:21;;;;;;;2.67;1.40;;;;;;;;;;4998423;28;20046;-86
2022/05/27 12:45:47;;;;;;;3.45;1.52;;;;;;;;;;5010222;28;20041;-87
2022/05/27 12:48:26;;;;;;;3.28;1.60;;;;;;;;;;5014435;28;20018;-87
2022/05/27 12:50:56;;;;;;;2.33;1.52;;;;;;;;;;5012258;28;20037;-86
2022/05/27 12:53:35;;;;;;;3.13;1.60;;;;;;;;;;5014175;28;20022;-86
2022/05/27 13:02:15;;;;;;;6.65;2.42;;;;;;;;;;5013464;28;20049;-85
2022/05/27 13:05:00;;;;;;;6.93;2.65;;;;;;;;;;5013969;28;20026;-85
2022/05/27 13:07:26;;;;;;;11.63;3.05;;;;;;;;;;5014883;28;20109;-84
2022/05/27 13:09:56;;;;;;;5.30;2.60;;;;;;;;;;5013463;28;20030;-85
2022/05/27 13:12:40;;;;;;;3.83;2.45;;;;;;;;;;5013638;28;20029;-85
2022/05/27 13:15:09;;;;;;;8.10;2.95;;;;;;;;;;5012285;28;20112;-86
2022/05/27 13:17:38;;;;;;;8.60;3.20;;;;;;;;;;5012355;28;20034;-86
2022/05/27 13:20:27;;;;;;;8.05;2.40;;;;;;;;;;5012375;28;20022;-85
2022/05/27 13:23:06;;;;;;;13.57;2.85;;;;;;;;;;5065786;23;20045;-86
2022/05/27 13:25:45;;;;;;;6.30;2.58;;;;;;;;;;4971850;28;20419;-86
2022/05/27 13:28:28;;;;;;;5.68;2.42;;;;;;;;;;4992402;28;20027;-85
2022/05/27 13:31:09;;;;;;;5.38;2.50;;;;;;;;;;4992852;28;20045;-83
2022/05/27 13:33:48;;;;;;;6.03;2.63;;;;;;;;;;5004170;28;20400;-86
2022/05/27 13:36:35;;;;;;;3.85;2.40;;;;;;;;;;5012138;28;20026;-86
2022/05/27 13:42:02;;;;;;;4.13;2.40;;;;;;;;;;5006055;28;20514;-86
2022/05/27 13:44:31;;;;;;;4.00;2.33;;;;;;;;;;4993624;28;20046;-87
2022/05/27 13:46:59;;;;;;;4.28;1.70;;;;;;;;;;4994827;28;20034;-87
2022/05/27 13:49:32;;;;;;;4.07;1.75;;;;;;;;;;4994324;28;20018;-86
2022/05/27 13:51:59;;;;;;;3.60;1.80;;;;;;;;;;4995541;28;20019;-84
2022/05/27 13:54:38;;;;;;;4.25;2.38;;;;;;;;;;4993351;28;20023;-86
2022/05/27 13:57:10;;;;;;;4.63;2.53;;;;;;;;;;4993359;28;20122;-86
2022/05/27 13:59:36;;;;;;;3.20;2.30;;;;;;;;;;4994854;28;20062;-86
2022/05/27 14:02:04;;;;;;;3.58;2.00;;;;;;;;;;4994054;28;20081;-87
2022/05/27 14:04:36;;;;;;;2.88;2.05;;;;;;;;;;4994397;28;20027;-87
2022/05/27 14:07:17;;;;;;;3.17;2.10;;;;;;;;;;4992292;28;20448;-85
2022/05/27 14:09:55;;;;;;;3.42;2.13;;;;;;;;;;4994120;28;20037;-86
2022/05/27 14:12:24;;;;;;;4.18;2.13;;;;;;;;;;4991941;28;20460;-85
2022/05/27 14:14:57;;;;;;;2.97;2.03;;;;;;;;;;4991685;28;20026;-85
2022/05/27 14:17:27;;;;;;;1.90;1.45;;;;;;;;;;4992761;28;20047;-86
2022/05/27 14:20:07;;;;;;;2.53;1.38;;;;;;;;;;4991581;28;20026;-87
2022/05/27 14:22:43;;;;;;;4.75;1.40;;;;;;;;;;5008665;23;20450;-84
2022/05/27 14:25:38;;;;;;;4.70;1.58;;;;;;;;;;4992229;28;20393;-87
2022/05/27 14:28:25;;;;;;;2.05;1.48;;;;;;;;;;4992545;28;20022;-86
2022/05/27 14:31:14;;;;;;;2.90;1.60;;;;;;;;;;4986114;28;20031;-85
2022/05/27 14:40:42;;;;;;;2.58;1.42;;;;;;;;;;4999405;28;20057;-85
2022/05/27 14:43:36;;;;;;;3.13;1.48;;;;;;;;;;5009656;28;20030;-85
2022/05/27 14:46:33;;;;;;;1.40;1.30;;;;;;;;;;4998887;28;20034;-87
2022/05/27 14:52:36;;;;;;;4.07;1.35;;;;;;;;;;4990861;28;20459;-87
2022/05/27 14:55:10;;;;;;;1.77;1.38;;;;;;;;;;4991357;28;20400;-87
2022/05/27 14:57:44;;;;;;;2.03;1.50;;;;;;;;;;4991370;28;20038;-87
2022/05/27 15:00:32;;;;;;;2.58;1.30;;;;;;;;;;4987508;28;20543;-87
2022/05/27 15:03:39;;;;;;;;;;;;;;;;;;;;;
2022/05/27 15:09:34;;;;;;;1.30;1.20;;;;;;;;;;4979837;28;20072;-87
2022/05/27 15:15:58;;;;;;;8.82;5.95;;;;;;;;;;4990960;28;20034;-87
2022/05/27 15:18:32;;;;;;;3.67;1.42;;;;;;;;;;4996593;28;20419;-88
2022/05/27 15:21:06;;;;;;;1.60;1.02;;;;;;;;;;5014657;28;20041;-87
2022/05/27 15:23:48;;;;;;;1.58;1.20;;;;;;;;;;5012897;28;20037;-87
2022/05/27 15:35:38;;;;;;;3.08;1.20;;;;;;;;;;5015349;28;20168;-87
2022/05/27 15:38:31;;;;;;;1.75;0.90;;;;;;;;;;5014080;28;20045;-86
2022/05/27 15:41:43;;;;;;;2.25;0.98;;;;;;;;;;5011303;28;20037;-86
2022/05/27 15:44:33;;;;;;;1.40;1.00;;;;;;;;;;5011478;28;20029;-86
2022/05/27 15:47:10;;;;;;;1.30;1.10;;;;;;;;;;5012197;28;20438;-86
2022/05/27 15:49:46;;;;;;;2.22;1.27;;;;;;;;;;5012752;28;20054;-86
2022/05/27 15:52:33;;;;;;;0.75;0.70;;;;;;;;;;4989564;28;20030;-87
2022/05/27 15:55:08;;;;;;;1.33;0.82;;;;;;;;;;5015751;28;20018;-87
2022/05/27 15:57:41;;;;;;;3.05;1.85;;;;;;;;;;5015641;28;20030;-87
2022/05/27 16:00:56;;;;;;;1.35;0.85;;;;;;;;;;5014984;28;20036;-86
2022/05/27 16:02:59;;;;;;;2.42;1.17;;;;;;;;;;5010144;28;20026;-87
2022/05/27 16:08:33;;;;;;;1.95;1.20;;;;;;;;;;5015741;28;20036;-87
2022/05/27 16:11:06;;;;;;;2.22;1.23;;;;;;;;;;5015477;28;20045;-86
2022/05/27 16:19:17;;;;;;;1.70;1.35;;;;;;;;;;5014949;28;20679;-87
2022/05/27 16:22:00;;;;;;;3.70;1.88;;;;;;;;;;5014971;28;20034;-87
2022/05/27 16:24:28;;;;;;;5.03;1.92;;;;;;;;;;5016204;23;20043;-87
2022/05/27 16:27:01;;;;;;;5.88;3.33;;;;;;;;;;4993595;28;20706;-87
2022/05/27 16:32:47;;;;;;;1.83;1.52;;;;;;;;;;4999497;28;20025;-87
2022/05/27 16:35:20;;;;;;;5.18;2.33;;;;;;;;;;5034492;28;20029;-86
2022/05/27 16:41:01;;;;;;;2.58;1.50;;;;;;;;;;5034604;28;20035;-87
2022/05/27 16:43:40;;;;;;;4.93;1.55;;;;;;;;;;5025080;23;20537;-86
2022/05/27 16:46:09;;;;;;;3.65;1.30;;;;;;;;;;4996443;28;20160;-86
2022/05/27 16:48:35;;;;;;;3.28;1.45;;;;;;;;;;4995667;28;20042;-88
2022/05/27 16:51:09;;;;;;;2.00;1.05;;;;;;;;;;4996423;28;20014;-89
2022/05/27 16:53:35;;;;;;;3.20;1.15;;;;;;;;;;5024154;28;20333;-87